Navios*hios — SXJH — position and weather

sailwx.info

Track history (hours):
 
Tides and Currents Weather Stations Pressure Air Temp Water Temp Dewpoint Dewpoint Depression Visibility Wind Speed Wind Dir Waves Ship Positions

Navios*hios

Last reported at 2014-Aug-20 20:31 UTC. Time now 2014-Aug-20 22:27 UTC.
Position N 36°50' W 072°31'.

Length 183 m; draft 10.3 m.

Type: Cargo ship. MMSI: 240149000.

Date/timePositionNaut miles runAvg speedWind from/ knotsBaromVisibWave heightAir tempDewpointWater temp
2014-Aug-20 20:31N 36°50' W 072°31'2613.1
2014-Aug-20 18:32N 36°50' W 073°04'1212.1
2014-Aug-20 17:33N 36°49' W 073°18'1211.5
2014-Aug-20 16:31N 36°49' W 073°33'1111.2
2014-Aug-20 15:33N 36°50' W 073°47'1211.0
2014-Aug-20 14:29N 36°50' W 074°02'1310.9
2014-Aug-20 13:16N 36°49' W 074°18'2111.1
2014-Aug-20 11:21N 36°49' W 074°45'57 9.5
2014-Aug-20 05:18N 36°55' W 075°56'810.6
2014-Aug-20 04:31N 36°58' W 076°05'1210.6
2014-Aug-20 03:22N 36°58' W 076°21'4 4.6
2014-Aug-20 02:28N 36°58' W 076°26'0 0.0
2014-Aug-19 10:08N 36°58' W 076°26'0 0.0
2014-Aug-19 06:17N 36°58' W 076°26'0 0.0
2014-Aug-19 03:20N 36°58' W 076°26'0 0.0
2014-Aug-18 20:07N 36°58' W 076°26'3 3.7
2014-Aug-18 19:20N 36°58' W 076°22'1312.0
2014-Aug-18 18:16N 36°58' W 076°06'3 1.4
2014-Aug-18 16:15N 36°56' W 076°05'0 0.0
2014-Aug-18 14:26N 36°56' W 076°05'0 0.0
2014-Aug-18 10:29N 36°56' W 076°05'0 0.0
2014-Aug-18 06:08N 36°56' W 076°05'0 0.0
2014-Aug-18 02:20N 36°56' W 076°05'0 0.0
2014-Aug-17 17:20N 36°56' W 076°05'0 0.0
2014-Aug-17 12:19N 36°56' W 076°05'0 0.0
2014-Aug-17 11:22N 36°56' W 076°05'0 0.0
2014-Aug-17 10:13N 36°56' W 076°05'0 0.0
2014-Aug-17 09:20N 36°56' W 076°05'0 0.0
2014-Aug-17 00:31N 36°56' W 076°05'0 0.0
2014-Aug-16 18:13N 36°56' W 076°05'0 0.0
2014-Aug-16 17:22N 36°56' W 076°05'0 0.0
2014-Aug-16 13:13N 36°56' W 076°05'0 0.0
2014-Aug-16 12:25N 36°56' W 076°05'0 0.0
2014-Aug-16 06:30N 36°56' W 076°05'0 0.0
2014-Aug-16 02:18N 36°56' W 076°05'0 0.0
2014-Aug-16 01:30N 36°56' W 076°05'0 0.0
2014-Aug-16 00:27N 36°56' W 076°05'0 0.0
2014-Aug-15 23:24N 36°56' W 076°05'0 0.1
2014-Aug-15 20:21N 36°56' W 076°05'0 0.0
2014-Aug-15 14:24N 36°56' W 076°05'0 0.0
2014-Aug-15 12:24N 36°56' W 076°05'0 0.0
2014-Aug-15 09:27N 36°56' W 076°05'0 0.0
2014-Aug-15 08:03N 36°56' W 076°05'0 0.0
2014-Aug-15 07:21N 36°56' W 076°05'0 0.1
2014-Aug-15 06:21N 36°56' W 076°05'0 0.1
2014-Aug-15 05:27N 36°56' W 076°05'0 0.0
2014-Aug-15 03:30N 36°56' W 076°05'0 0.1
2014-Aug-15 02:15N 36°56' W 076°05'0 0.1
2014-Aug-15 00:33N 36°56' W 076°05'0 0.0
2014-Aug-14 21:17N 36°56' W 076°05'0 0.1
2014-Aug-14 17:17N 36°56' W 076°05'0 0.3
2014-Aug-14 16:33N 36°56' W 076°05'9 8.6
2014-Aug-14 15:29N 36°57' W 075°53'1212.1
2014-Aug-14 14:30N 37°01' W 075°39'191 4.9
2014-Aug-12 23:26N 40°07' W 074°47'2 0.1
2014-Aug-12 11:32N 40°08' W 074°49'0 0.0
2014-Aug-12 10:32N 40°08' W 074°49'0 0.0
2014-Aug-12 09:32N 40°08' W 074°49'0 0.0
2014-Aug-12 08:32N 40°08' W 074°49'0 0.0
2014-Aug-12 06:14N 40°08' W 074°49'0 0.0
2014-Aug-12 05:26N 40°08' W 074°49'0 0.0
2014-Aug-12 04:16N 40°08' W 074°49'0 0.0
2014-Aug-12 03:31N 40°08' W 074°49'0 0.0
2014-Aug-12 02:28N 40°08' W 074°49'0 0.0
2014-Aug-12 00:28N 40°08' W 074°49'0 0.0
2014-Aug-11 23:13N 40°08' W 074°49'0 0.0
2014-Aug-11 10:25N 40°08' W 074°49'0 0.0
2014-Aug-11 09:31N 40°08' W 074°49'0 0.0
2014-Aug-11 08:31N 40°08' W 074°49'0 0.0
2014-Aug-11 07:22N 40°08' W 074°49'0 0.0
2014-Aug-11 06:31N 40°08' W 074°49'0 0.0
2014-Aug-11 05:07N 40°08' W 074°49'0 0.0
2014-Aug-11 04:28N 40°08' W 074°49'  
Track history (hours):
 
Tides and Currents Weather Stations Pressure Air Temp Water Temp Dewpoint Dewpoint Depression Visibility Wind Speed Wind Dir Waves Ship Positions

Navios*hios

Last reported at 2014-Aug-20 20:31 UTC. Time now 2014-Aug-20 22:27 UTC.
Position N 36°50' W 072°31'.

Length 183 m; draft 10.3 m.

Type: Cargo ship. MMSI: 240149000.

Date/timePositionNaut miles runAvg speedWind from/ knotsBaromVisibWave heightAir tempDewpointWater temp
2014-Aug-20 20:31N 36°50' W 072°31'2613.1
2014-Aug-20 18:32N 36°50' W 073°04'1212.1
2014-Aug-20 17:33N 36°49' W 073°18'1211.5
2014-Aug-20 16:31N 36°49' W 073°33'1111.2
2014-Aug-20 15:33N 36°50' W 073°47'1211.0
2014-Aug-20 14:29N 36°50' W 074°02'1310.9
2014-Aug-20 13:16N 36°49' W 074°18'2111.1
2014-Aug-20 11:21N 36°49' W 074°45'57 9.5
2014-Aug-20 05:18N 36°55' W 075°56'810.6
2014-Aug-20 04:31N 36°58' W 076°05'1210.6
2014-Aug-20 03:22N 36°58' W 076°21'4 4.6
2014-Aug-20 02:28N 36°58' W 076°26'0 0.0
2014-Aug-19 10:08N 36°58' W 076°26'0 0.0
2014-Aug-19 06:17N 36°58' W 076°26'0 0.0
2014-Aug-19 03:20N 36°58' W 076°26'0 0.0
2014-Aug-18 20:07N 36°58' W 076°26'3 3.7
2014-Aug-18 19:20N 36°58' W 076°22'1312.0
2014-Aug-18 18:16N 36°58' W 076°06'3 1.4
2014-Aug-18 16:15N 36°56' W 076°05'0 0.0
2014-Aug-18 14:26N 36°56' W 076°05'0 0.0
2014-Aug-18 10:29N 36°56' W 076°05'0 0.0
2014-Aug-18 06:08N 36°56' W 076°05'0 0.0
2014-Aug-18 02:20N 36°56' W 076°05'0 0.0
2014-Aug-17 17:20N 36°56' W 076°05'0 0.0
2014-Aug-17 12:19N 36°56' W 076°05'0 0.0
2014-Aug-17 11:22N 36°56' W 076°05'0 0.0
2014-Aug-17 10:13N 36°56' W 076°05'0 0.0
2014-Aug-17 09:20N 36°56' W 076°05'0 0.0
2014-Aug-17 00:31N 36°56' W 076°05'0 0.0
2014-Aug-16 18:13N 36°56' W 076°05'0 0.0
2014-Aug-16 17:22N 36°56' W 076°05'0 0.0
2014-Aug-16 13:13N 36°56' W 076°05'0 0.0
2014-Aug-16 12:25N 36°56' W 076°05'0 0.0
2014-Aug-16 06:30N 36°56' W 076°05'0 0.0
2014-Aug-16 02:18N 36°56' W 076°05'0 0.0
2014-Aug-16 01:30N 36°56' W 076°05'0 0.0
2014-Aug-16 00:27N 36°56' W 076°05'0 0.0
2014-Aug-15 23:24N 36°56' W 076°05'0 0.1
2014-Aug-15 20:21N 36°56' W 076°05'0 0.0
2014-Aug-15 14:24N 36°56' W 076°05'0 0.0
2014-Aug-15 12:24N 36°56' W 076°05'0 0.0
2014-Aug-15 09:27N 36°56' W 076°05'0 0.0
2014-Aug-15 08:03N 36°56' W 076°05'0 0.0
2014-Aug-15 07:21N 36°56' W 076°05'0 0.1
2014-Aug-15 06:21N 36°56' W 076°05'0 0.1
2014-Aug-15 05:27N 36°56' W 076°05'0 0.0
2014-Aug-15 03:30N 36°56' W 076°05'0 0.1
2014-Aug-15 02:15N 36°56' W 076°05'0 0.1
2014-Aug-15 00:33N 36°56' W 076°05'0 0.0
2014-Aug-14 21:17N 36°56' W 076°05'0 0.1
2014-Aug-14 17:17N 36°56' W 076°05'0 0.3
2014-Aug-14 16:33N 36°56' W 076°05'9 8.6
2014-Aug-14 15:29N 36°57' W 075°53'1212.1
2014-Aug-14 14:30N 37°01' W 075°39'191 4.9
2014-Aug-12 23:26N 40°07' W 074°47'2 0.1
2014-Aug-12 11:32N 40°08' W 074°49'0 0.0
2014-Aug-12 10:32N 40°08' W 074°49'0 0.0
2014-Aug-12 09:32N 40°08' W 074°49'0 0.0
2014-Aug-12 08:32N 40°08' W 074°49'0 0.0
2014-Aug-12 06:14N 40°08' W 074°49'0 0.0
2014-Aug-12 05:26N 40°08' W 074°49'0 0.0
2014-Aug-12 04:16N 40°08' W 074°49'0 0.0
2014-Aug-12 03:31N 40°08' W 074°49'0 0.0
2014-Aug-12 02:28N 40°08' W 074°49'0 0.0
2014-Aug-12 00:28N 40°08' W 074°49'0 0.0
2014-Aug-11 23:13N 40°08' W 074°49'0 0.0
2014-Aug-11 10:25N 40°08' W 074°49'0 0.0
2014-Aug-11 09:31N 40°08' W 074°49'0 0.0
2014-Aug-11 08:31N 40°08' W 074°49'0 0.0
2014-Aug-11 07:22N 40°08' W 074°49'0 0.0
2014-Aug-11 06:31N 40°08' W 074°49'0 0.0
2014-Aug-11 05:07N 40°08' W 074°49'0 0.0
2014-Aug-11 04:28N 40°08' W 074°49'  

Dump ship's entire track history